Bear, Idaho
Current Conditions -  °F | °C
As of 6:51 PM on Tuesday 21 Oct 2014 (Local Time) from KMYL Reporting Station
Overcast Overcast  
Wind Chill: 37°   Ceiling: 6000
Heat Index: 40°   Visibility: 10mi
Dew Point: 37°   Wind: 5mph
Humidity: 89%   Direction: NA
Pressure: 30.05"   Gusts: NA
Location:  44.9328°N, 116.572°W
Report Text: KMYL 220051Z AUTO VRB04KT 10SM SCT034 BKN060 OVC075 04/03 A3005 RMK AO2 RAB05E50 SLP179 P0001 T00440028
Loading
Personal Weather Stations






























Interactive Weather Map
Tropical Storm Tracking
New forecast layout! Learn more

10-Day Weather Forecast

Advertisements
Track Severe Weather on mobile